sensor_id;sensor_type;location;lat;lon;timestamp;temperature;humidity
20985;DHT22;10651;47.552;7.606;2023-06-14T00:01:44;19.50;83.40
20985;DHT22;10651;47.552;7.606;2023-06-14T00:04:14;19.50;84.10
20985;DHT22;10651;47.552;7.606;2023-06-14T00:06:42;19.50;83.80
20985;DHT22;10651;47.552;7.606;2023-06-14T00:09:13;19.50;83.70
20985;DHT22;10651;47.552;7.606;2023-06-14T00:11:43;19.40;84.20
20985;DHT22;10651;47.552;7.606;2023-06-14T00:14:08;19.40;84.80
20985;DHT22;10651;47.552;7.606;2023-06-14T00:16:34;19.30;86.10
20985;DHT22;10651;47.552;7.606;2023-06-14T00:19:01;19.30;86.60
20985;DHT22;10651;47.552;7.606;2023-06-14T00:21:29;19.20;86.80
20985;DHT22;10651;47.552;7.606;2023-06-14T00:23:55;19.20;86.90
20985;DHT22;10651;47.552;7.606;2023-06-14T00:26:21;19.20;86.80
20985;DHT22;10651;47.552;7.606;2023-06-14T00:28:47;19.10;87.30
20985;DHT22;10651;47.552;7.606;2023-06-14T00:31:13;19.10;87.20
20985;DHT22;10651;47.552;7.606;2023-06-14T00:33:38;19.10;87.30
20985;DHT22;10651;47.552;7.606;2023-06-14T00:36:04;19.00;87.30
20985;DHT22;10651;47.552;7.606;2023-06-14T00:38:30;19.00;87.80
20985;DHT22;10651;47.552;7.606;2023-06-14T00:40:55;19.00;87.80
20985;DHT22;10651;47.552;7.606;2023-06-14T00:43:21;19.00;88.20
20985;DHT22;10651;47.552;7.606;2023-06-14T00:45:47;19.00;88.40
20985;DHT22;10651;47.552;7.606;2023-06-14T00:48:15;18.90;88.30
20985;DHT22;10651;47.552;7.606;2023-06-14T00:50:41;18.80;88.40
20985;DHT22;10651;47.552;7.606;2023-06-14T00:53:07;18.80;88.60
20985;DHT22;10651;47.552;7.606;2023-06-14T00:55:33;18.80;89.20
20985;DHT22;10651;47.552;7.606;2023-06-14T00:57:59;18.80;89.40
20985;DHT22;10651;47.552;7.606;2023-06-14T01:00:25;18.70;89.90
20985;DHT22;10651;47.552;7.606;2023-06-14T01:02:51;18.70;90.00
20985;DHT22;10651;47.552;7.606;2023-06-14T01:05:17;18.60;90.10
20985;DHT22;10651;47.552;7.606;2023-06-14T01:08:00;18.60;90.40
20985;DHT22;10651;47.552;7.606;2023-06-14T01:13:12;18.40;90.70
20985;DHT22;10651;47.552;7.606;2023-06-14T01:15:39;18.40;91.00
20985;DHT22;10651;47.552;7.606;2023-06-14T01:18:05;18.40;91.10
20985;DHT22;10651;47.552;7.606;2023-06-14T01:20:34;18.40;91.20
20985;DHT22;10651;47.552;7.606;2023-06-14T01:23:03;18.30;91.10
20985;DHT22;10651;47.552;7.606;2023-06-14T01:25:28;18.30;91.00
20985;DHT22;10651;47.552;7.606;2023-06-14T01:28:00;18.20;91.00
20985;DHT22;10651;47.552;7.606;2023-06-14T01:30:29;18.20;91.30
20985;DHT22;10651;47.552;7.606;2023-06-14T01:32:55;18.20;91.60
20985;DHT22;10651;47.552;7.606;2023-06-14T01:35:22;18.10;91.50
20985;DHT22;10651;47.552;7.606;2023-06-14T01:37:48;18.10;91.70
20985;DHT22;10651;47.552;7.606;2023-06-14T01:40:18;18.00;91.90
20985;DHT22;10651;47.552;7.606;2023-06-14T01:42:46;18.00;92.00
20985;DHT22;10651;47.552;7.606;2023-06-14T01:45:14;18.00;92.30
20985;DHT22;10651;47.552;7.606;2023-06-14T01:47:40;17.90;92.30
20985;DHT22;10651;47.552;7.606;2023-06-14T01:50:06;17.80;92.70
20985;DHT22;10651;47.552;7.606;2023-06-14T01:52:32;17.80;92.90
20985;DHT22;10651;47.552;7.606;2023-06-14T01:54:57;17.80;93.00
20985;DHT22;10651;47.552;7.606;2023-06-14T01:57:24;17.80;93.20
20985;DHT22;10651;47.552;7.606;2023-06-14T01:59:52;17.80;93.30
20985;DHT22;10651;47.552;7.606;2023-06-14T02:02:18;17.70;93.30
20985;DHT22;10651;47.552;7.606;2023-06-14T02:04:44;17.70;93.50
20985;DHT22;10651;47.552;7.606;2023-06-14T02:07:13;17.70;93.70
20985;DHT22;10651;47.552;7.606;2023-06-14T02:09:38;17.60;93.80
20985;DHT22;10651;47.552;7.606;2023-06-14T02:12:04;17.60;94.00
20985;DHT22;10651;47.552;7.606;2023-06-14T02:14:30;17.50;94.20
20985;DHT22;10651;47.552;7.606;2023-06-14T02:16:56;17.50;94.40
20985;DHT22;10651;47.552;7.606;2023-06-14T02:19:22;17.50;94.50
20985;DHT22;10651;47.552;7.606;2023-06-14T02:21:48;17.50;94.60
20985;DHT22;10651;47.552;7.606;2023-06-14T02:24:13;17.40;94.70
20985;DHT22;10651;47.552;7.606;2023-06-14T02:26:39;17.30;95.20
20985;DHT22;10651;47.552;7.606;2023-06-14T02:29:07;17.20;95.30
20985;DHT22;10651;47.552;7.606;2023-06-14T02:31:35;17.00;95.70
20985;DHT22;10651;47.552;7.606;2023-06-14T02:34:01;16.90;95.80
20985;DHT22;10651;47.552;7.606;2023-06-14T02:36:27;17.00;95.80
20985;DHT22;10651;47.552;7.606;2023-06-14T02:38:55;17.00;95.70
20985;DHT22;10651;47.552;7.606;2023-06-14T02:41:23;16.90;95.60
20985;DHT22;10651;47.552;7.606;2023-06-14T02:43:49;16.90;95.70
20985;DHT22;10651;47.552;7.606;2023-06-14T02:46:15;16.80;95.80
20985;DHT22;10651;47.552;7.606;2023-06-14T02:48:41;16.80;96.00
20985;DHT22;10651;47.552;7.606;2023-06-14T02:51:06;16.80;96.00
20985;DHT22;10651;47.552;7.606;2023-06-14T02:53:34;16.80;96.10
20985;DHT22;10651;47.552;7.606;2023-06-14T02:56:00;16.70;96.20
20985;DHT22;10651;47.552;7.606;2023-06-14T02:58:26;16.70;96.20
20985;DHT22;10651;47.552;7.606;2023-06-14T03:00:52;16.60;96.40
20985;DHT22;10651;47.552;7.606;2023-06-14T03:03:20;16.60;96.50
20985;DHT22;10651;47.552;7.606;2023-06-14T03:05:47;16.50;96.60
20985;DHT22;10651;47.552;7.606;2023-06-14T03:08:15;16.40;96.70
20985;DHT22;10651;47.552;7.606;2023-06-14T03:10:52;16.50;96.40
20985;DHT22;10651;47.552;7.606;2023-06-14T03:13:18;16.40;96.30
20985;DHT22;10651;47.552;7.606;2023-06-14T03:15:47;16.40;96.40
20985;DHT22;10651;47.552;7.606;2023-06-14T03:18:15;16.40;96.20
20985;DHT22;10651;47.552;7.606;2023-06-14T03:20:41;16.40;96.10
20985;DHT22;10651;47.552;7.606;2023-06-14T03:23:08;16.40;96.40
20985;DHT22;10651;47.552;7.606;2023-06-14T03:25:33;16.40;96.00
20985;DHT22;10651;47.552;7.606;2023-06-14T03:28:01;16.30;96.20
20985;DHT22;10651;47.552;7.606;2023-06-14T03:30:26;16.30;96.20
20985;DHT22;10651;47.552;7.606;2023-06-14T03:32:52;16.40;96.20
20985;DHT22;10651;47.552;7.606;2023-06-14T03:35:18;16.40;96.00
20985;DHT22;10651;47.552;7.606;2023-06-14T03:37:44;16.30;95.90
20985;DHT22;10651;47.552;7.606;2023-06-14T03:40:11;16.30;95.80
20985;DHT22;10651;47.552;7.606;2023-06-14T03:42:37;16.20;96.10
20985;DHT22;10651;47.552;7.606;2023-06-14T03:45:02;16.20;96.10
20985;DHT22;10651;47.552;7.606;2023-06-14T03:47:28;16.20;96.30
20985;DHT22;10651;47.552;7.606;2023-06-14T03:49:53;16.20;96.50
20985;DHT22;10651;47.552;7.606;2023-06-14T03:52:19;16.00;96.70
20985;DHT22;10651;47.552;7.606;2023-06-14T03:54:46;16.10;96.70
20985;DHT22;10651;47.552;7.606;2023-06-14T03:57:12;16.10;96.70
20985;DHT22;10651;47.552;7.606;2023-06-14T03:59:37;16.00;96.80
20985;DHT22;10651;47.552;7.606;2023-06-14T04:02:03;16.00;96.70
20985;DHT22;10651;47.552;7.606;2023-06-14T04:04:28;16.00;97.10
20985;DHT22;10651;47.552;7.606;2023-06-14T04:06:57;16.00;97.40
20985;DHT22;10651;47.552;7.606;2023-06-14T04:09:24;16.00;97.30
20985;DHT22;10651;47.552;7.606;2023-06-14T04:11:51;16.00;97.20
20985;DHT22;10651;47.552;7.606;2023-06-14T04:14:17;16.20;97.20
20985;DHT22;10651;47.552;7.606;2023-06-14T04:16:43;16.10;97.40
20985;DHT22;10651;47.552;7.606;2023-06-14T04:19:08;16.20;97.30
20985;DHT22;10651;47.552;7.606;2023-06-14T04:21:34;16.10;97.30
20985;DHT22;10651;47.552;7.606;2023-06-14T04:24:00;16.00;97.30
20985;DHT22;10651;47.552;7.606;2023-06-14T04:26:26;16.00;97.50
20985;DHT22;10651;47.552;7.606;2023-06-14T04:28:55;16.00;97.50
20985;DHT22;10651;47.552;7.606;2023-06-14T04:31:25;16.10;97.60
20985;DHT22;10651;47.552;7.606;2023-06-14T04:33:51;16.10;97.70
20985;DHT22;10651;47.552;7.606;2023-06-14T04:36:19;16.10;97.90
20985;DHT22;10651;47.552;7.606;2023-06-14T04:38:45;16.10;97.80
20985;DHT22;10651;47.552;7.606;2023-06-14T04:41:12;16.30;97.90
20985;DHT22;10651;47.552;7.606;2023-06-14T04:43:38;16.30;97.60
20985;DHT22;10651;47.552;7.606;2023-06-14T04:46:04;16.40;97.80
20985;DHT22;10651;47.552;7.606;2023-06-14T04:48:31;16.30;97.80
20985;DHT22;10651;47.552;7.606;2023-06-14T04:50:56;16.30;98.20
20985;DHT22;10651;47.552;7.606;2023-06-14T04:53:22;16.30;97.80
20985;DHT22;10651;47.552;7.606;2023-06-14T04:55:48;16.30;97.90
20985;DHT22;10651;47.552;7.606;2023-06-14T04:58:15;16.30;98.20
20985;DHT22;10651;47.552;7.606;2023-06-14T05:00:41;16.30;98.20
20985;DHT22;10651;47.552;7.606;2023-06-14T05:03:09;16.30;98.00
20985;DHT22;10651;47.552;7.606;2023-06-14T05:05:34;16.40;98.00
20985;DHT22;10651;47.552;7.606;2023-06-14T05:08:00;16.50;97.90
20985;DHT22;10651;47.552;7.606;2023-06-14T05:10:25;16.50;97.60
20985;DHT22;10651;47.552;7.606;2023-06-14T05:12:51;16.40;97.60
20985;DHT22;10651;47.552;7.606;2023-06-14T05:15:18;16.40;97.30
20985;DHT22;10651;47.552;7.606;2023-06-14T05:17:45;16.50;97.30
20985;DHT22;10651;47.552;7.606;2023-06-14T05:20:13;16.50;97.50
20985;DHT22;10651;47.552;7.606;2023-06-14T05:22:39;16.50;97.20
20985;DHT22;10651;47.552;7.606;2023-06-14T05:25:04;16.60;97.30
20985;DHT22;10651;47.552;7.606;2023-06-14T05:27:30;16.50;96.90
20985;DHT22;10651;47.552;7.606;2023-06-14T05:29:56;16.60;97.20
20985;DHT22;10651;47.552;7.606;2023-06-14T05:32:24;16.60;96.90
20985;DHT22;10651;47.552;7.606;2023-06-14T05:34:49;16.70;97.00
20985;DHT22;10651;47.552;7.606;2023-06-14T05:37:15;16.70;97.00
20985;DHT22;10651;47.552;7.606;2023-06-14T05:39:41;16.80;99.00
20985;DHT22;10651;47.552;7.606;2023-06-14T05:42:06;16.90;97.50
20985;DHT22;10651;47.552;7.606;2023-06-14T05:44:32;17.10;98.00
20985;DHT22;10651;47.552;7.606;2023-06-14T05:46:58;17.20;97.60
20985;DHT22;10651;47.552;7.606;2023-06-14T05:49:23;17.30;97.50
20985;DHT22;10651;47.552;7.606;2023-06-14T05:51:49;17.20;96.50
20985;DHT22;10651;47.552;7.606;2023-06-14T05:54:15;17.00;97.50
20985;DHT22;10651;47.552;7.606;2023-06-14T05:56:40;17.10;97.50
20985;DHT22;10651;47.552;7.606;2023-06-14T05:59:06;17.20;96.70
20985;DHT22;10651;47.552;7.606;2023-06-14T06:01:31;17.30;96.10
20985;DHT22;10651;47.552;7.606;2023-06-14T06:03:59;17.40;96.10
20985;DHT22;10651;47.552;7.606;2023-06-14T06:06:24;17.50;95.70
20985;DHT22;10651;47.552;7.606;2023-06-14T06:08:50;17.50;95.30
20985;DHT22;10651;47.552;7.606;2023-06-14T06:11:15;17.60;95.50
20985;DHT22;10651;47.552;7.606;2023-06-14T06:13:41;17.80;95.80
20985;DHT22;10651;47.552;7.606;2023-06-14T06:16:07;17.90;95.70
20985;DHT22;10651;47.552;7.606;2023-06-14T06:18:32;18.10;96.10
20985;DHT22;10651;47.552;7.606;2023-06-14T06:20:58;18.10;95.20
20985;DHT22;10651;47.552;7.606;2023-06-14T06:23:23;18.20;95.50
20985;DHT22;10651;47.552;7.606;2023-06-14T06:25:49;18.30;95.40
20985;DHT22;10651;47.552;7.606;2023-06-14T06:28:15;18.30;95.40
20985;DHT22;10651;47.552;7.606;2023-06-14T06:30:40;18.40;95.20
20985;DHT22;10651;47.552;7.606;2023-06-14T06:33:06;18.40;94.90
20985;DHT22;10651;47.552;7.606;2023-06-14T06:35:31;18.40;94.70
20985;DHT22;10651;47.552;7.606;2023-06-14T06:37:58;18.40;94.70
20985;DHT22;10651;47.552;7.606;2023-06-14T06:40:24;18.50;94.90
20985;DHT22;10651;47.552;7.606;2023-06-14T06:42:49;18.60;95.30
20985;DHT22;10651;47.552;7.606;2023-06-14T06:45:15;18.70;95.80
20985;DHT22;10651;47.552;7.606;2023-06-14T06:47:41;18.70;96.30
20985;DHT22;10651;47.552;7.606;2023-06-14T06:50:06;18.70;96.30
20985;DHT22;10651;47.552;7.606;2023-06-14T06:52:33;18.80;96.10
20985;DHT22;10651;47.552;7.606;2023-06-14T06:54:58;18.90;96.20
20985;DHT22;10651;47.552;7.606;2023-06-14T06:57:24;19.00;95.80
20985;DHT22;10651;47.552;7.606;2023-06-14T06:59:49;19.00;95.80
20985;DHT22;10651;47.552;7.606;2023-06-14T07:02:15;19.10;95.80
20985;DHT22;10651;47.552;7.606;2023-06-14T07:04:41;19.10;95.40
20985;DHT22;10651;47.552;7.606;2023-06-14T07:07:06;19.10;95.20
20985;DHT22;10651;47.552;7.606;2023-06-14T07:09:32;19.20;95.20
20985;DHT22;10651;47.552;7.606;2023-06-14T07:11:57;19.10;94.90
20985;DHT22;10651;47.552;7.606;2023-06-14T07:14:23;19.20;94.90
20985;DHT22;10651;47.552;7.606;2023-06-14T07:16:49;19.30;95.50
20985;DHT22;10651;47.552;7.606;2023-06-14T07:19:15;19.40;95.20
20985;DHT22;10651;47.552;7.606;2023-06-14T07:21:41;19.40;94.60
20985;DHT22;10651;47.552;7.606;2023-06-14T07:24:06;19.40;94.40
20985;DHT22;10651;47.552;7.606;2023-06-14T07:26:33;19.50;95.00
20985;DHT22;10651;47.552;7.606;2023-06-14T07:28:59;19.50;95.50
20985;DHT22;10651;47.552;7.606;2023-06-14T07:31:24;19.60;95.60
20985;DHT22;10651;47.552;7.606;2023-06-14T07:33:50;19.70;95.30
20985;DHT22;10651;47.552;7.606;2023-06-14T07:36:15;19.80;95.60
20985;DHT22;10651;47.552;7.606;2023-06-14T07:38:43;19.80;96.10
20985;DHT22;10651;47.552;7.606;2023-06-14T07:41:08;19.80;95.70
20985;DHT22;10651;47.552;7.606;2023-06-14T07:43:34;19.90;95.30
20985;DHT22;10651;47.552;7.606;2023-06-14T07:45:59;20.00;95.50
20985;DHT22;10651;47.552;7.606;2023-06-14T07:48:25;20.10;95.40
20985;DHT22;10651;47.552;7.606;2023-06-14T07:50:50;20.10;95.50
20985;DHT22;10651;47.552;7.606;2023-06-14T07:53:16;20.20;95.80
20985;DHT22;10651;47.552;7.606;2023-06-14T07:55:41;20.30;95.30
20985;DHT22;10651;47.552;7.606;2023-06-14T07:58:08;20.30;95.50
20985;DHT22;10651;47.552;7.606;2023-06-14T08:00:34;20.30;95.00
20985;DHT22;10651;47.552;7.606;2023-06-14T08:03:00;20.30;95.50
20985;DHT22;10651;47.552;7.606;2023-06-14T08:05:26;20.40;95.20
20985;DHT22;10651;47.552;7.606;2023-06-14T08:07:51;20.50;95.50
20985;DHT22;10651;47.552;7.606;2023-06-14T08:10:17;20.50;94.60
20985;DHT22;10651;47.552;7.606;2023-06-14T08:12:43;20.50;94.40
20985;DHT22;10651;47.552;7.606;2023-06-14T08:15:08;20.70;95.50
20985;DHT22;10651;47.552;7.606;2023-06-14T08:17:34;20.80;94.80
20985;DHT22;10651;47.552;7.606;2023-06-14T08:20:00;20.80;95.20
20985;DHT22;10651;47.552;7.606;2023-06-14T08:22:26;20.90;95.80
20985;DHT22;10651;47.552;7.606;2023-06-14T08:24:53;21.00;94.70
20985;DHT22;10651;47.552;7.606;2023-06-14T08:27:19;21.10;94.30
20985;DHT22;10651;47.552;7.606;2023-06-14T08:29:45;21.10;93.90
20985;DHT22;10651;47.552;7.606;2023-06-14T08:32:11;21.20;93.70
20985;DHT22;10651;47.552;7.606;2023-06-14T08:34:36;21.30;93.20
20985;DHT22;10651;47.552;7.606;2023-06-14T08:37:02;21.40;93.70
20985;DHT22;10651;47.552;7.606;2023-06-14T08:39:27;21.50;93.40
20985;DHT22;10651;47.552;7.606;2023-06-14T08:41:53;21.60;93.70
20985;DHT22;10651;47.552;7.606;2023-06-14T08:44:20;21.70;93.50
20985;DHT22;10651;47.552;7.606;2023-06-14T08:46:45;21.80;93.80
20985;DHT22;10651;47.552;7.606;2023-06-14T08:49:13;21.80;93.60
20985;DHT22;10651;47.552;7.606;2023-06-14T08:51:39;21.90;93.30
20985;DHT22;10651;47.552;7.606;2023-06-14T08:54:05;22.20;94.30
20985;DHT22;10651;47.552;7.606;2023-06-14T08:56:32;22.30;93.20
20985;DHT22;10651;47.552;7.606;2023-06-14T08:58:59;22.30;93.40
20985;DHT22;10651;47.552;7.606;2023-06-14T09:01:30;22.40;92.80
20985;DHT22;10651;47.552;7.606;2023-06-14T09:03:56;22.50;92.20
20985;DHT22;10651;47.552;7.606;2023-06-14T09:06:22;22.50;92.30
20985;DHT22;10651;47.552;7.606;2023-06-14T09:08:50;22.60;93.30
20985;DHT22;10651;47.552;7.606;2023-06-14T09:11:18;22.80;93.60
20985;DHT22;10651;47.552;7.606;2023-06-14T09:13:46;22.90;91.80
20985;DHT22;10651;47.552;7.606;2023-06-14T09:16:12;23.10;92.00
20985;DHT22;10651;47.552;7.606;2023-06-14T09:18:38;23.20;93.30
20985;DHT22;10651;47.552;7.606;2023-06-14T09:21:08;23.30;92.40
20985;DHT22;10651;47.552;7.606;2023-06-14T09:23:36;23.20;91.90
20985;DHT22;10651;47.552;7.606;2023-06-14T09:26:06;23.40;93.30
20985;DHT22;10651;47.552;7.606;2023-06-14T09:28:31;23.50;93.50
20985;DHT22;10651;47.552;7.606;2023-06-14T09:30:57;23.40;92.30
20985;DHT22;10651;47.552;7.606;2023-06-14T09:33:22;23.40;93.20
20985;DHT22;10651;47.552;7.606;2023-06-14T09:35:51;23.60;93.10
20985;DHT22;10651;47.552;7.606;2023-06-14T09:38:18;23.80;93.00
20985;DHT22;10651;47.552;7.606;2023-06-14T09:40:43;23.90;91.80
20985;DHT22;10651;47.552;7.606;2023-06-14T09:43:09;24.00;92.90
20985;DHT22;10651;47.552;7.606;2023-06-14T09:45:35;23.90;91.30
20985;DHT22;10651;47.552;7.606;2023-06-14T09:48:01;24.00;92.00
20985;DHT22;10651;47.552;7.606;2023-06-14T09:50:27;24.20;92.00
20985;DHT22;10651;47.552;7.606;2023-06-14T09:52:52;24.30;91.60
20985;DHT22;10651;47.552;7.606;2023-06-14T09:55:21;24.20;90.70
20985;DHT22;10651;47.552;7.606;2023-06-14T09:57:47;24.10;91.10
20985;DHT22;10651;47.552;7.606;2023-06-14T10:00:13;24.30;89.80
20985;DHT22;10651;47.552;7.606;2023-06-14T10:02:40;24.40;90.00
20985;DHT22;10651;47.552;7.606;2023-06-14T10:05:08;24.50;90.70
20985;DHT22;10651;47.552;7.606;2023-06-14T10:07:55;24.60;90.20
20985;DHT22;10651;47.552;7.606;2023-06-14T10:10:20;24.60;90.20
20985;DHT22;10651;47.552;7.606;2023-06-14T10:12:46;24.70;90.80
20985;DHT22;10651;47.552;7.606;2023-06-14T10:15:15;24.80;89.50
20985;DHT22;10651;47.552;7.606;2023-06-14T10:17:59;25.10;91.10
20985;DHT22;10651;47.552;7.606;2023-06-14T10:20:50;25.10;89.10
20985;DHT22;10651;47.552;7.606;2023-06-14T10:23:22;25.00;88.50
20985;DHT22;10651;47.552;7.606;2023-06-14T10:25:56;25.10;87.90
20985;DHT22;10651;47.552;7.606;2023-06-14T10:28:22;25.30;89.80
20985;DHT22;10651;47.552;7.606;2023-06-14T10:33:29;25.50;87.90
20985;DHT22;10651;47.552;7.606;2023-06-14T10:36:23;25.30;84.90
20985;DHT22;10651;47.552;7.606;2023-06-14T10:41:27;25.50;88.40
20985;DHT22;10651;47.552;7.606;2023-06-14T10:44:08;25.50;87.40
20985;DHT22;10651;47.552;7.606;2023-06-14T10:46:35;25.70;87.80
20985;DHT22;10651;47.552;7.606;2023-06-14T10:49:01;25.50;86.70
20985;DHT22;10651;47.552;7.606;2023-06-14T10:51:29;25.60;86.80
20985;DHT22;10651;47.552;7.606;2023-06-14T10:53:58;25.60;84.20
20985;DHT22;10651;47.552;7.606;2023-06-14T10:56:28;25.90;88.40
20985;DHT22;10651;47.552;7.606;2023-06-14T10:58:54;26.00;88.70
20985;DHT22;10651;47.552;7.606;2023-06-14T11:04:13;26.20;90.70
20985;DHT22;10651;47.552;7.606;2023-06-14T11:12:01;26.40;85.40
20985;DHT22;10651;47.552;7.606;2023-06-14T11:14:29;26.50;87.40
20985;DHT22;10651;47.552;7.606;2023-06-14T11:16:55;26.50;85.60
20985;DHT22;10651;47.552;7.606;2023-06-14T11:19:21;26.60;86.60
20985;DHT22;10651;47.552;7.606;2023-06-14T11:21:47;26.70;84.90
20985;DHT22;10651;47.552;7.606;2023-06-14T11:24:13;26.70;86.30
20985;DHT22;10651;47.552;7.606;2023-06-14T11:26:39;26.80;85.50
20985;DHT22;10651;47.552;7.606;2023-06-14T11:29:05;26.80;83.60
20985;DHT22;10651;47.552;7.606;2023-06-14T11:31:31;26.80;82.70
20985;DHT22;10651;47.552;7.606;2023-06-14T11:33:57;26.60;82.10
20985;DHT22;10651;47.552;7.606;2023-06-14T11:36:23;26.70;82.00
20985;DHT22;10651;47.552;7.606;2023-06-14T11:38:57;26.70;83.60
20985;DHT22;10651;47.552;7.606;2023-06-14T11:41:24;26.80;81.60
20985;DHT22;10651;47.552;7.606;2023-06-14T11:43:52;26.70;81.80
20985;DHT22;10651;47.552;7.606;2023-06-14T11:46:17;26.80;81.90
20985;DHT22;10651;47.552;7.606;2023-06-14T11:48:47;26.90;82.20
20985;DHT22;10651;47.552;7.606;2023-06-14T11:51:12;27.10;84.20
20985;DHT22;10651;47.552;7.606;2023-06-14T11:53:38;27.40;82.70
20985;DHT22;10651;47.552;7.606;2023-06-14T11:56:04;27.40;83.40
20985;DHT22;10651;47.552;7.606;2023-06-14T11:58:30;27.40;81.60
20985;DHT22;10651;47.552;7.606;2023-06-14T12:00:55;27.60;80.00
20985;DHT22;10651;47.552;7.606;2023-06-14T12:03:24;27.60;81.30
20985;DHT22;10651;47.552;7.606;2023-06-14T12:08:35;27.60;79.10
20985;DHT22;10651;47.552;7.606;2023-06-14T12:11:11;27.60;79.50
20985;DHT22;10651;47.552;7.606;2023-06-14T12:13:38;27.50;79.10
20985;DHT22;10651;47.552;7.606;2023-06-14T12:16:04;27.40;79.20
20985;DHT22;10651;47.552;7.606;2023-06-14T12:18:37;27.60;79.30
20985;DHT22;10651;47.552;7.606;2023-06-14T12:21:03;27.60;79.10
20985;DHT22;10651;47.552;7.606;2023-06-14T12:23:41;27.80;79.80
20985;DHT22;10651;47.552;7.606;2023-06-14T12:26:07;28.00;81.20
20985;DHT22;10651;47.552;7.606;2023-06-14T12:28:33;27.90;80.10
20985;DHT22;10651;47.552;7.606;2023-06-14T12:30:58;27.90;78.30
20985;DHT22;10651;47.552;7.606;2023-06-14T12:33:24;27.90;79.00
20985;DHT22;10651;47.552;7.606;2023-06-14T12:35:50;28.10;80.00
20985;DHT22;10651;47.552;7.606;2023-06-14T12:38:16;28.10;79.10
20985;DHT22;10651;47.552;7.606;2023-06-14T12:40:42;28.00;78.60
20985;DHT22;10651;47.552;7.606;2023-06-14T12:43:08;28.10;77.80
20985;DHT22;10651;47.552;7.606;2023-06-14T12:45:33;28.20;79.30
20985;DHT22;10651;47.552;7.606;2023-06-14T12:47:59;28.50;79.50
20985;DHT22;10651;47.552;7.606;2023-06-14T12:50:24;28.30;80.70
20985;DHT22;10651;47.552;7.606;2023-06-14T12:52:50;28.00;81.60
20985;DHT22;10651;47.552;7.606;2023-06-14T12:55:16;27.90;85.40
20985;DHT22;10651;47.552;7.606;2023-06-14T12:57:41;27.80;87.30
20985;DHT22;10651;47.552;7.606;2023-06-14T13:00:07;27.80;83.80
20985;DHT22;10651;47.552;7.606;2023-06-14T13:02:33;27.60;85.00
20985;DHT22;10651;47.552;7.606;2023-06-14T13:04:59;27.60;84.00
20985;DHT22;10651;47.552;7.606;2023-06-14T13:07:25;27.60;81.80
20985;DHT22;10651;47.552;7.606;2023-06-14T13:09:51;27.60;81.10
20985;DHT22;10651;47.552;7.606;2023-06-14T13:12:16;27.80;79.60
20985;DHT22;10651;47.552;7.606;2023-06-14T13:14:42;28.00;79.50
20985;DHT22;10651;47.552;7.606;2023-06-14T13:17:08;28.10;78.40
20985;DHT22;10651;47.552;7.606;2023-06-14T13:19:34;28.00;77.20
20985;DHT22;10651;47.552;7.606;2023-06-14T13:22:00;28.20;78.30
20985;DHT22;10651;47.552;7.606;2023-06-14T13:24:26;28.30;77.80
20985;DHT22;10651;47.552;7.606;2023-06-14T13:26:52;28.30;77.60
20985;DHT22;10651;47.552;7.606;2023-06-14T13:29:17;28.40;79.70
20985;DHT22;10651;47.552;7.606;2023-06-14T13:31:43;28.40;78.90
20985;DHT22;10651;47.552;7.606;2023-06-14T13:34:08;28.20;81.30
20985;DHT22;10651;47.552;7.606;2023-06-14T13:36:34;28.00;78.60
20985;DHT22;10651;47.552;7.606;2023-06-14T13:39:00;28.10;78.30
20985;DHT22;10651;47.552;7.606;2023-06-14T13:41:26;28.10;77.10
20985;DHT22;10651;47.552;7.606;2023-06-14T13:43:57;28.10;78.70
20985;DHT22;10651;47.552;7.606;2023-06-14T13:46:22;28.30;79.90
20985;DHT22;10651;47.552;7.606;2023-06-14T13:48:48;28.30;78.00
20985;DHT22;10651;47.552;7.606;2023-06-14T13:51:13;28.30;77.80
20985;DHT22;10651;47.552;7.606;2023-06-14T13:53:39;28.30;76.90
20985;DHT22;10651;47.552;7.606;2023-06-14T13:56:05;28.20;76.40
20985;DHT22;10651;47.552;7.606;2023-06-14T13:58:30;28.30;77.90
20985;DHT22;10651;47.552;7.606;2023-06-14T14:00:56;28.30;78.00
20985;DHT22;10651;47.552;7.606;2023-06-14T14:03:22;28.50;78.00
20985;DHT22;10651;47.552;7.606;2023-06-14T14:05:47;28.70;77.00
20985;DHT22;10651;47.552;7.606;2023-06-14T14:08:13;28.70;77.90
20985;DHT22;10651;47.552;7.606;2023-06-14T14:10:41;28.70;77.20
20985;DHT22;10651;47.552;7.606;2023-06-14T14:13:07;28.60;77.20
20985;DHT22;10651;47.552;7.606;2023-06-14T14:15:33;28.50;77.10
20985;DHT22;10651;47.552;7.606;2023-06-14T14:18:00;28.50;78.80
20985;DHT22;10651;47.552;7.606;2023-06-14T14:20:25;28.50;77.20
20985;DHT22;10651;47.552;7.606;2023-06-14T14:22:51;28.50;77.50
20985;DHT22;10651;47.552;7.606;2023-06-14T14:25:16;28.50;77.40
20985;DHT22;10651;47.552;7.606;2023-06-14T14:27:42;28.50;77.40
20985;DHT22;10651;47.552;7.606;2023-06-14T14:30:07;28.30;77.60
20985;DHT22;10651;47.552;7.606;2023-06-14T14:32:35;28.30;78.30
20985;DHT22;10651;47.552;7.606;2023-06-14T14:35:00;28.40;77.70
20985;DHT22;10651;47.552;7.606;2023-06-14T14:37:26;28.30;79.70
20985;DHT22;10651;47.552;7.606;2023-06-14T14:39:51;28.20;81.80
20985;DHT22;10651;47.552;7.606;2023-06-14T14:42:17;28.10;79.30
20985;DHT22;10651;47.552;7.606;2023-06-14T14:44:43;28.10;78.10
20985;DHT22;10651;47.552;7.606;2023-06-14T14:47:09;28.10;79.20
20985;DHT22;10651;47.552;7.606;2023-06-14T14:49:35;28.10;79.50
20985;DHT22;10651;47.552;7.606;2023-06-14T15:02:22;28.30;77.90
20985;DHT22;10651;47.552;7.606;2023-06-14T15:04:49;28.40;78.70
20985;DHT22;10651;47.552;7.606;2023-06-14T15:07:15;28.50;78.10
20985;DHT22;10651;47.552;7.606;2023-06-14T15:09:40;28.60;78.30
20985;DHT22;10651;47.552;7.606;2023-06-14T15:12:06;28.50;77.50
20985;DHT22;10651;47.552;7.606;2023-06-14T15:14:32;28.40;77.90
20985;DHT22;10651;47.552;7.606;2023-06-14T15:16:58;28.30;76.50
20985;DHT22;10651;47.552;7.606;2023-06-14T15:19:26;28.20;77.00
20985;DHT22;10651;47.552;7.606;2023-06-14T15:21:52;28.20;77.30
20985;DHT22;10651;47.552;7.606;2023-06-14T15:24:20;28.30;78.40
20985;DHT22;10651;47.552;7.606;2023-06-14T15:26:45;28.10;76.60
20985;DHT22;10651;47.552;7.606;2023-06-14T15:29:11;28.00;77.50
20985;DHT22;10651;47.552;7.606;2023-06-14T15:31:36;27.90;77.00
20985;DHT22;10651;47.552;7.606;2023-06-14T15:34:02;28.00;77.70
20985;DHT22;10651;47.552;7.606;2023-06-14T15:36:28;28.00;78.20
20985;DHT22;10651;47.552;7.606;2023-06-14T15:38:53;28.00;77.10
20985;DHT22;10651;47.552;7.606;2023-06-14T15:41:19;27.90;76.90
20985;DHT22;10651;47.552;7.606;2023-06-14T15:43:44;27.80;77.00
20985;DHT22;10651;47.552;7.606;2023-06-14T15:46:10;27.80;77.20
20985;DHT22;10651;47.552;7.606;2023-06-14T15:48:35;27.70;77.40
20985;DHT22;10651;47.552;7.606;2023-06-14T15:51:01;27.70;77.70
20985;DHT22;10651;47.552;7.606;2023-06-14T15:53:26;27.70;77.70
20985;DHT22;10651;47.552;7.606;2023-06-14T15:55:52;27.70;77.90